createdAt,value
2022-10-18T00:01:47.503Z,101193.53
2022-10-18T00:04:15.669Z,101186.22
2022-10-18T00:06:43.801Z,101185.34
2022-10-18T00:09:12.543Z,101181.00
2022-10-18T00:11:40.832Z,101187.88
2022-10-18T00:14:09.176Z,101188.22
2022-10-18T00:16:39.166Z,101177.97
2022-10-18T00:19:08.635Z,101176.28
2022-10-18T00:21:36.803Z,101171.69
2022-10-18T00:24:05.903Z,101166.28
2022-10-18T00:26:34.103Z,101162.53
2022-10-18T00:29:05.476Z,101160.41
2022-10-18T00:31:35.515Z,101150.47
2022-10-18T00:34:06.583Z,101152.94
2022-10-18T00:36:36.183Z,101150.69
2022-10-18T00:39:05.940Z,101154.28
2022-10-18T00:41:35.647Z,101153.75
2022-10-18T00:44:06.808Z,101157.25
2022-10-18T00:46:36.730Z,101153.00
2022-10-18T00:49:09.981Z,101152.75
2022-10-18T00:51:44.317Z,101155.19
2022-10-18T00:54:12.708Z,101156.50
2022-10-18T00:56:41.109Z,101157.28
2022-10-18T00:59:09.520Z,101146.00
2022-10-18T01:01:37.639Z,101160.94
2022-10-18T01:04:05.977Z,101149.09
2022-10-18T01:06:42.511Z,101146.63
2022-10-18T01:09:20.447Z,101136.34
2022-10-18T01:12:09.152Z,101133.28
2022-10-18T01:14:46.379Z,101139.72
2022-10-18T01:17:20.303Z,101138.59
2022-10-18T01:20:37.157Z,101138.09
2022-10-18T01:23:09.282Z,101140.09
2022-10-18T01:25:45.851Z,101137.78
2022-10-18T01:28:31.612Z,101124.13
2022-10-18T01:31:05.040Z,101129.56
2022-10-18T01:33:40.950Z,101136.63
2022-10-18T01:36:17.651Z,101131.00
2022-10-18T01:38:48.416Z,101122.41
2022-10-18T01:41:20.503Z,101125.84
2022-10-18T01:43:52.096Z,101126.47
2022-10-18T01:46:24.907Z,101131.59
2022-10-18T01:48:54.080Z,101127.66
2022-10-18T01:51:25.750Z,101129.25
2022-10-18T01:53:54.590Z,101129.56
2022-10-18T01:56:29.783Z,101126.38
2022-10-18T01:59:28.006Z,101127.00
2022-10-18T02:02:04.066Z,101126.53
2022-10-18T02:04:41.249Z,101124.13
2022-10-18T02:07:18.554Z,101128.97
2022-10-18T02:09:54.052Z,101115.53
2022-10-18T02:12:24.046Z,101110.50
2022-10-18T02:14:53.208Z,101107.00
2022-10-18T02:17:24.745Z,101105.63
2022-10-18T02:19:57.224Z,101099.16
2022-10-18T02:22:31.017Z,101098.34
2022-10-18T02:25:03.126Z,101105.88
2022-10-18T02:27:31.626Z,101106.09
2022-10-18T02:30:00.014Z,101104.72
2022-10-18T02:32:35.747Z,101109.00
2022-10-18T02:35:08.944Z,101107.41
2022-10-18T02:37:40.251Z,101109.09
2022-10-18T02:40:11.494Z,101113.34
2022-10-18T02:42:41.319Z,101109.63
2022-10-18T02:45:09.685Z,101112.38
2022-10-18T02:47:39.156Z,101111.84
2022-10-18T02:50:07.763Z,101114.00
2022-10-18T02:52:35.812Z,101113.19
2022-10-18T02:55:03.909Z,101115.66
2022-10-18T02:57:32.127Z,101115.34
2022-10-18T03:00:00.389Z,101121.84
2022-10-18T03:02:28.728Z,101122.63
2022-10-18T03:04:58.686Z,101120.22
2022-10-18T03:07:26.742Z,101121.59
2022-10-18T03:09:54.777Z,101132.94
2022-10-18T03:12:22.863Z,101127.06
2022-10-18T03:14:50.892Z,101132.97
2022-10-18T03:17:19.000Z,101132.13
2022-10-18T03:19:47.009Z,101132.41
2022-10-18T03:22:16.498Z,101135.94
2022-10-18T03:24:45.575Z,101136.50
2022-10-18T03:27:13.636Z,101130.09
2022-10-18T03:29:41.770Z,101133.91
2022-10-18T03:32:09.902Z,101133.13
2022-10-18T03:34:38.078Z,101143.63
2022-10-18T03:37:07.711Z,101139.59
2022-10-18T03:39:37.154Z,101135.28
2022-10-18T03:42:05.407Z,101132.06
2022-10-18T03:44:33.439Z,101136.13
2022-10-18T03:47:01.444Z,101135.38
2022-10-18T03:49:29.447Z,101131.63
2022-10-18T03:51:57.968Z,101129.41
2022-10-18T03:54:26.019Z,101131.63
2022-10-18T03:56:55.939Z,101145.53
2022-10-18T03:59:24.101Z,101145.06
2022-10-18T04:01:52.211Z,101131.88
2022-10-18T04:04:20.648Z,101133.50
2022-10-18T04:06:48.792Z,101129.72
2022-10-18T04:09:16.870Z,101132.69
2022-10-18T04:11:45.005Z,101131.59
2022-10-18T04:14:14.439Z,101131.09
2022-10-18T04:16:42.453Z,101130.75
2022-10-18T04:19:10.459Z,101135.09
2022-10-18T04:21:38.502Z,101131.63
2022-10-18T04:24:07.287Z,101125.72
2022-10-18T04:26:35.334Z,101123.59
2022-10-18T04:29:03.631Z,101126.81
2022-10-18T04:31:33.066Z,101123.84
2022-10-18T04:34:02.379Z,101123.53
2022-10-18T04:36:30.501Z,101131.94
2022-10-18T04:38:58.753Z,101126.06
2022-10-18T04:41:26.917Z,101120.09
2022-10-18T04:43:54.876Z,101129.16
2022-10-18T04:46:22.855Z,101132.19
2022-10-18T04:48:52.276Z,101129.22
2022-10-18T04:51:20.321Z,101139.13
2022-10-18T04:53:48.338Z,101133.22
2022-10-18T04:56:18.185Z,101128.41
2022-10-18T04:58:46.275Z,101130.53
2022-10-18T05:01:14.499Z,101130.75
2022-10-18T05:03:42.597Z,101128.34
2022-10-18T05:06:12.201Z,101127.78
2022-10-18T05:08:40.530Z,101128.84
2022-10-18T05:13:41.656Z,101134.22
2022-10-18T05:16:09.692Z,101129.88
2022-10-18T05:18:37.795Z,101129.59
2022-10-18T05:21:05.933Z,101137.38
2022-10-18T05:23:35.415Z,101128.75
2022-10-18T05:26:04.953Z,101130.53
2022-10-18T05:28:39.679Z,101137.53
2022-10-18T05:31:11.248Z,101133.75
2022-10-18T05:33:39.552Z,101138.22
2022-10-18T05:36:08.294Z,101131.56
2022-10-18T05:38:40.009Z,101142.56
2022-10-18T05:41:07.960Z,101140.13
2022-10-18T05:43:36.233Z,101140.41
2022-10-18T05:46:04.889Z,101134.97
2022-10-18T05:48:32.909Z,101131.09
2022-10-18T05:51:01.477Z,101135.13
2022-10-18T05:53:38.061Z,101130.22
2022-10-18T05:56:08.863Z,101133.44
2022-10-18T05:58:37.023Z,101138.47
2022-10-18T06:01:06.669Z,101132.81
2022-10-18T06:03:35.712Z,101128.41
2022-10-18T06:06:05.843Z,101132.41
2022-10-18T06:08:34.679Z,101132.34
2022-10-18T06:11:09.722Z,101138.13
2022-10-18T06:13:41.322Z,101138.53
2022-10-18T06:16:10.574Z,101149.50
2022-10-18T06:18:39.198Z,101148.94
2022-10-18T06:21:08.148Z,101148.00
2022-10-18T06:23:36.922Z,101147.94
2022-10-18T06:26:07.400Z,101147.31
2022-10-18T06:28:39.950Z,101155.03
2022-10-18T06:31:08.863Z,101153.25
2022-10-18T06:33:38.171Z,101158.75
2022-10-18T06:36:09.553Z,101149.16
2022-10-18T06:38:37.826Z,101146.59
2022-10-18T06:41:07.474Z,101150.69
2022-10-18T06:43:37.600Z,101150.47
2022-10-18T06:46:08.422Z,101153.09
2022-10-18T06:48:37.339Z,101155.72
2022-10-18T06:51:07.229Z,101159.22
2022-10-18T06:53:43.907Z,101147.50
2022-10-18T06:56:21.567Z,101145.22
2022-10-18T06:58:51.491Z,101151.28
2022-10-18T07:01:20.236Z,101146.31
2022-10-18T07:03:50.029Z,101145.94
2022-10-18T07:06:20.140Z,101149.53
2022-10-18T07:08:49.306Z,101143.53
2022-10-18T07:11:19.478Z,101139.63
2022-10-18T07:13:48.304Z,101141.88
2022-10-18T07:16:19.522Z,101136.34
2022-10-18T07:18:50.075Z,101132.63
2022-10-18T07:21:20.044Z,101133.94
2022-10-18T07:23:48.539Z,101130.00
2022-10-18T07:26:18.996Z,101129.97
2022-10-18T07:28:50.047Z,101120.94
2022-10-18T07:31:19.685Z,101120.84
2022-10-18T07:33:48.028Z,101121.22
2022-10-18T07:36:16.382Z,101118.81
2022-10-18T07:38:44.862Z,101104.16
2022-10-18T07:41:14.715Z,101108.81
2022-10-18T07:43:46.803Z,101112.41
2022-10-18T07:46:16.671Z,101115.09
2022-10-18T07:48:46.132Z,101105.84
2022-10-18T07:51:14.282Z,101095.53
2022-10-18T07:53:42.350Z,101096.94
2022-10-18T07:56:16.263Z,101088.59
2022-10-18T07:58:45.117Z,101094.97
2022-10-18T08:01:14.748Z,101089.59
2022-10-18T08:03:44.056Z,101090.88
2022-10-18T08:06:16.279Z,101081.31
2022-10-18T08:08:44.379Z,101078.47
2022-10-18T08:11:15.381Z,101070.00
2022-10-18T08:13:43.811Z,101069.19
2022-10-18T08:16:14.466Z,101066.66
2022-10-18T08:18:43.180Z,101064.91
2022-10-18T08:21:14.299Z,101050.84
2022-10-18T08:23:42.813Z,101061.53
2022-10-18T08:26:13.029Z,101054.13
2022-10-18T08:28:46.048Z,101055.41
2022-10-18T08:31:22.129Z,101045.28
2022-10-18T08:33:50.402Z,101039.84
2022-10-18T08:36:20.010Z,101046.03
2022-10-18T08:38:49.388Z,101034.34
2022-10-18T08:41:34.604Z,101034.53
2022-10-18T08:44:10.271Z,101033.09
2022-10-18T08:46:43.041Z,101026.25
2022-10-18T08:49:18.096Z,101012.00
2022-10-18T08:51:50.675Z,101011.28
2022-10-18T08:54:27.130Z,101013.00
2022-10-18T08:57:00.957Z,101004.84
2022-10-18T08:59:34.234Z,101004.31
2022-10-18T09:02:12.428Z,100996.63
2022-10-18T09:04:50.199Z,100998.13
2022-10-18T09:07:36.826Z,100995.31
2022-10-18T09:10:14.971Z,100991.59
2022-10-18T09:12:58.882Z,100992.91
2022-10-18T09:15:34.794Z,100982.59
2022-10-18T09:18:14.840Z,100986.00
2022-10-18T09:20:52.082Z,100986.25
2022-10-18T09:23:24.166Z,100984.56
2022-10-18T09:25:57.395Z,100980.34
2022-10-18T09:28:35.534Z,100975.00
2022-10-18T09:31:11.629Z,100971.25
2022-10-18T09:33:46.995Z,100968.50
2022-10-18T09:36:19.654Z,100964.66
2022-10-18T09:38:52.050Z,100959.44
2022-10-18T09:41:26.171Z,100949.72
2022-10-18T09:44:01.163Z,100952.09
2022-10-18T09:46:33.587Z,100943.78
2022-10-18T09:49:06.266Z,100940.09
2022-10-18T09:51:38.591Z,100939.97
2022-10-18T09:54:18.369Z,100942.56
2022-10-18T09:56:50.895Z,100930.84
2022-10-18T09:59:42.079Z,100931.41
2022-10-18T10:02:15.139Z,100920.22
2022-10-18T10:04:43.461Z,100918.25
2022-10-18T10:07:15.846Z,100903.47
2022-10-18T10:09:48.898Z,100901.34
2022-10-18T10:12:28.747Z,100894.19
2022-10-18T10:15:08.702Z,100893.59
2022-10-18T10:17:37.313Z,100888.13
2022-10-18T10:20:16.885Z,100881.75
2022-10-18T10:22:46.806Z,100874.19
2022-10-18T10:25:26.830Z,100872.41
2022-10-18T10:27:55.056Z,100873.94
2022-10-18T10:30:26.984Z,100857.31
2022-10-18T10:32:57.091Z,100859.09
2022-10-18T10:35:52.641Z,100845.50
2022-10-18T10:38:25.068Z,100833.13
2022-10-18T10:40:55.279Z,100832.06
2022-10-18T10:43:44.309Z,100816.66
2022-10-18T10:46:14.716Z,100811.59
2022-10-18T10:48:49.801Z,100807.09
2022-10-18T10:51:20.477Z,100798.53
2022-10-18T10:53:52.687Z,100791.09
2022-10-18T10:56:28.312Z,100781.44
2022-10-18T10:58:59.316Z,100776.91
2022-10-18T11:01:30.996Z,100773.22
2022-10-18T11:04:01.241Z,100770.19
2022-10-18T11:06:42.161Z,100768.16
2022-10-18T11:09:48.738Z,100754.47
2022-10-18T11:12:26.891Z,100747.31
2022-10-18T11:15:05.932Z,100741.00
2022-10-18T11:17:41.414Z,100738.59
2022-10-18T11:20:22.658Z,100728.50
2022-10-18T11:23:00.719Z,100733.34
2022-10-18T11:25:44.748Z,100726.34
2022-10-18T11:28:20.564Z,100711.97
2022-10-18T11:31:01.066Z,100698.41
2022-10-18T11:34:07.004Z,100699.97
2022-10-18T11:36:36.783Z,100694.50
2022-10-18T11:39:11.050Z,100686.44
2022-10-18T11:41:41.340Z,100688.34
2022-10-18T11:44:23.905Z,100683.28
2022-10-18T11:47:04.556Z,100682.31
2022-10-18T11:49:58.357Z,100678.75
2022-10-18T11:52:35.228Z,100675.75
2022-10-18T11:55:20.164Z,100661.94
2022-10-18T11:57:55.982Z,100665.47
2022-10-18T12:00:45.226Z,100658.00
2022-10-18T12:03:34.880Z,100656.09
2022-10-18T12:06:06.502Z,100647.59
2022-10-18T12:08:41.419Z,100635.88
2022-10-18T12:11:15.317Z,100643.69
2022-10-18T12:13:49.576Z,100642.91
2022-10-18T12:16:38.928Z,100630.00
2022-10-18T12:19:23.491Z,100620.66
2022-10-18T12:21:56.816Z,100620.38
2022-10-18T12:24:29.420Z,100615.69
2022-10-18T12:27:01.623Z,100610.81
2022-10-18T12:29:36.814Z,100608.09
2022-10-18T12:32:11.816Z,100610.84
2022-10-18T12:34:45.603Z,100607.94
2022-10-18T12:37:38.610Z,100596.16
2022-10-18T12:40:15.773Z,100600.00
2022-10-18T12:42:50.079Z,100591.56
2022-10-18T12:45:28.287Z,100582.88
2022-10-18T12:48:01.236Z,100594.50
2022-10-18T12:50:36.151Z,100589.78
2022-10-18T12:53:18.332Z,100581.97
2022-10-18T12:55:47.836Z,100579.16
2022-10-18T12:58:31.141Z,100581.91
2022-10-18T13:01:02.535Z,100581.13
2022-10-18T13:03:54.345Z,100582.28
2022-10-18T13:06:24.835Z,100569.63
2022-10-18T13:09:16.884Z,100565.16
2022-10-18T13:11:45.185Z,100560.50
2022-10-18T13:14:49.371Z,100558.91
2022-10-18T13:17:38.206Z,100541.97
2022-10-18T13:20:27.688Z,100548.50
2022-10-18T13:23:09.993Z,100550.78
2022-10-18T13:25:51.723Z,100544.50
2022-10-18T13:28:30.768Z,100543.84
2022-10-18T13:31:04.190Z,100543.94
2022-10-18T13:33:35.058Z,100544.00
2022-10-18T13:36:06.895Z,100539.59
2022-10-18T13:38:48.676Z,100530.16
2022-10-18T13:41:20.472Z,100525.75
2022-10-18T13:44:00.851Z,100528.91
2022-10-18T13:46:58.561Z,100527.41
2022-10-18T13:49:35.363Z,100520.25
2022-10-18T13:52:12.508Z,100511.28
2022-10-18T13:55:08.383Z,100515.06
2022-10-18T13:57:51.575Z,100510.78
2022-10-18T14:00:49.498Z,100511.56
2022-10-18T14:03:57.654Z,100511.69
2022-10-18T14:06:29.515Z,100506.06
2022-10-18T14:09:13.754Z,100501.66
2022-10-18T14:11:57.460Z,100504.94
2022-10-18T14:14:34.405Z,100500.59
2022-10-18T14:17:13.078Z,100491.94
2022-10-18T14:19:48.291Z,100490.69
2022-10-18T14:22:21.121Z,100486.66
2022-10-18T14:24:53.995Z,100487.78
2022-10-18T14:27:25.412Z,100480.47
2022-10-18T14:30:10.215Z,100480.50
2022-10-18T14:32:38.701Z,100471.50
2022-10-18T14:35:34.071Z,100468.31
2022-10-18T14:38:03.660Z,100472.50
2022-10-18T14:40:38.617Z,100470.16
2022-10-18T14:43:13.689Z,100469.34
2022-10-18T14:45:42.799Z,100466.69
2022-10-18T14:48:16.969Z,100462.38
2022-10-18T14:50:48.882Z,100463.06
2022-10-18T14:53:21.133Z,100460.00
2022-10-18T14:55:56.255Z,100453.28
2022-10-18T14:58:25.868Z,100455.19
2022-10-18T15:00:55.461Z,100458.78
2022-10-18T15:03:24.476Z,100458.38
2022-10-18T15:05:55.514Z,100451.28
2022-10-18T15:08:25.741Z,100458.66
2022-10-18T15:10:54.849Z,100452.63
2022-10-18T15:13:23.204Z,100448.66
2022-10-18T15:15:52.899Z,100444.69
2022-10-18T15:18:24.161Z,100449.31
2022-10-18T15:21:22.224Z,100444.13
2022-10-18T15:23:50.700Z,100448.34
2022-10-18T15:26:24.303Z,100442.00
2022-10-18T15:28:54.207Z,100441.56
2022-10-18T15:31:29.616Z,100440.72
2022-10-18T15:34:11.459Z,100440.88
2022-10-18T15:36:39.830Z,100439.16
2022-10-18T15:39:09.949Z,100435.81
2022-10-18T15:41:40.395Z,100431.72
2022-10-18T15:44:13.340Z,100442.84
2022-10-18T15:46:44.182Z,100432.41
2022-10-18T15:49:52.259Z,100435.72
2022-10-18T15:52:48.079Z,100430.16
2022-10-18T15:55:48.166Z,100438.28
2022-10-18T15:58:20.278Z,100442.19
2022-10-18T16:00:50.269Z,100437.88
2022-10-18T16:03:24.071Z,100432.28
2022-10-18T16:05:57.326Z,100438.34
2022-10-18T16:08:28.884Z,100437.38
2022-10-18T16:10:57.423Z,100437.59
2022-10-18T16:13:25.957Z,100440.28
2022-10-18T16:15:55.861Z,100438.50
2022-10-18T16:18:26.465Z,100440.31
2022-10-18T16:20:54.737Z,100440.94
2022-10-18T16:23:25.872Z,100437.44
2022-10-18T16:25:54.386Z,100433.47
2022-10-18T16:28:24.585Z,100436.53
2022-10-18T16:30:57.010Z,100436.72
2022-10-18T16:33:27.229Z,100441.69
2022-10-18T16:35:56.052Z,100444.19
2022-10-18T16:38:32.439Z,100443.19
2022-10-18T16:41:04.807Z,100449.59
2022-10-18T16:43:33.200Z,100441.53
2022-10-18T16:46:01.378Z,100452.22
2022-10-18T16:48:31.244Z,100444.97
2022-10-18T16:50:59.878Z,100453.81
2022-10-18T16:53:28.790Z,100452.41
2022-10-18T16:55:59.440Z,100450.66
2022-10-18T16:58:28.403Z,100459.00
2022-10-18T17:00:57.719Z,100447.91
2022-10-18T17:03:26.464Z,100446.97
2022-10-18T17:05:56.502Z,100453.81
2022-10-18T17:08:28.347Z,100452.16
2022-10-18T17:10:58.806Z,100455.22
2022-10-18T17:13:27.991Z,100452.16
2022-10-18T17:15:56.361Z,100445.31
2022-10-18T17:18:27.668Z,100447.06
2022-10-18T17:20:59.590Z,100442.13
2022-10-18T17:23:27.807Z,100445.00
2022-10-18T17:26:05.344Z,100443.19
2022-10-18T17:28:38.586Z,100444.75
2022-10-18T17:31:08.408Z,100444.22
2022-10-18T17:33:36.781Z,100444.41
2022-10-18T17:36:06.520Z,100450.03
2022-10-18T17:38:34.652Z,100447.69
2022-10-18T17:41:07.805Z,100447.44
2022-10-18T17:43:37.466Z,100448.38
2022-10-18T17:46:05.806Z,100447.06
2022-10-18T17:48:34.454Z,100444.72
2022-10-18T17:51:09.579Z,100445.19
2022-10-18T17:53:37.972Z,100443.78
2022-10-18T17:56:07.854Z,100446.97
2022-10-18T17:58:36.567Z,100440.88
2022-10-18T18:01:12.524Z,100444.84
2022-10-18T18:03:41.452Z,100440.31
2022-10-18T18:06:16.481Z,100435.34
2022-10-18T18:08:44.862Z,100435.78
2022-10-18T18:11:13.243Z,100442.16
2022-10-18T18:13:41.620Z,100441.34
2022-10-18T18:16:14.677Z,100435.81
2022-10-18T18:18:43.142Z,100438.66
2022-10-18T18:21:11.429Z,100438.50
2022-10-18T18:23:41.046Z,100432.50
2022-10-18T18:26:09.371Z,100433.53
2022-10-18T18:28:38.309Z,100431.31
2022-10-18T18:31:08.159Z,100422.13
2022-10-18T18:33:36.401Z,100419.41
2022-10-18T18:36:06.816Z,100419.31
2022-10-18T18:38:37.172Z,100417.72
2022-10-18T18:41:08.752Z,100419.00
2022-10-18T18:43:37.802Z,100421.81
2022-10-18T18:46:06.444Z,100417.94
2022-10-18T18:48:35.904Z,100424.38
2022-10-18T18:51:06.418Z,100425.06
2022-10-18T18:53:34.642Z,100435.03
2022-10-18T18:56:04.436Z,100434.56
2022-10-18T18:58:36.265Z,100431.44
2022-10-18T19:01:08.513Z,100424.28
2022-10-18T19:03:38.552Z,100432.09
2022-10-18T19:06:08.459Z,100435.25
2022-10-18T19:08:38.453Z,100433.56
2022-10-18T19:11:09.528Z,100424.94
2022-10-18T19:13:39.411Z,100424.09
2022-10-18T19:16:35.488Z,100424.88
2022-10-18T19:19:06.755Z,100423.16
2022-10-18T19:21:38.723Z,100420.91
2022-10-18T19:24:07.868Z,100413.81
2022-10-18T19:26:38.763Z,100415.59
2022-10-18T19:29:14.932Z,100414.78
2022-10-18T19:31:43.871Z,100414.13
2022-10-18T19:34:15.047Z,100417.28
2022-10-18T19:36:44.681Z,100422.31
2022-10-18T19:39:18.462Z,100423.28
2022-10-18T19:41:47.097Z,100422.88
2022-10-18T19:44:16.898Z,100425.66
2022-10-18T19:46:46.670Z,100428.41
2022-10-18T19:49:15.258Z,100416.53
2022-10-18T19:51:43.907Z,100422.13
2022-10-18T19:54:15.633Z,100423.78
2022-10-18T19:56:44.584Z,100424.75
2022-10-18T19:59:14.700Z,100424.31
2022-10-18T20:01:46.690Z,100427.84
2022-10-18T20:04:16.316Z,100423.38
2022-10-18T20:06:45.434Z,100422.78
2022-10-18T20:09:24.278Z,100415.00
2022-10-18T20:11:52.547Z,100417.72
2022-10-18T20:14:21.304Z,100417.44
2022-10-18T20:16:51.126Z,100416.00
2022-10-18T20:19:20.101Z,100410.16
2022-10-18T20:21:48.353Z,100415.59
2022-10-18T20:24:16.680Z,100410.19
2022-10-18T20:26:45.106Z,100418.31
2022-10-18T20:29:13.265Z,100410.19
2022-10-18T20:31:41.634Z,100416.25
2022-10-18T20:34:13.461Z,100408.69
2022-10-18T20:36:43.035Z,100411.09
2022-10-18T20:39:11.472Z,100411.91
2022-10-18T20:41:41.829Z,100410.47
2022-10-18T20:44:14.022Z,100407.00
2022-10-18T20:46:42.837Z,100400.19
2022-10-18T20:49:16.800Z,100398.72
2022-10-18T20:51:45.376Z,100388.25
2022-10-18T20:54:13.897Z,100384.75
2022-10-18T20:56:42.028Z,100382.34
2022-10-18T20:59:11.594Z,100375.50
2022-10-18T21:01:40.919Z,100386.81
2022-10-18T21:04:10.964Z,100387.63
2022-10-18T21:06:43.181Z,100382.69
2022-10-18T21:09:14.870Z,100376.81
2022-10-18T21:11:45.019Z,100375.06
2022-10-18T21:14:15.116Z,100371.38
2022-10-18T21:16:44.101Z,100372.66
2022-10-18T21:19:18.285Z,100374.25
2022-10-18T21:21:50.466Z,100367.41
2022-10-18T21:24:19.928Z,100356.00
2022-10-18T21:26:48.974Z,100348.81
2022-10-18T21:29:21.850Z,100354.53
2022-10-18T21:31:50.565Z,100341.66
2022-10-18T21:34:19.282Z,100349.00
2022-10-18T21:36:49.411Z,100348.66
2022-10-18T21:39:20.085Z,100344.03
2022-10-18T21:41:48.625Z,100341.34
2022-10-18T21:44:17.559Z,100341.81
2022-10-18T21:46:46.949Z,100335.47
2022-10-18T21:49:16.051Z,100325.28
2022-10-18T21:51:44.831Z,100325.72
2022-10-18T21:54:16.738Z,100321.13
2022-10-18T21:56:45.533Z,100315.09
2022-10-18T21:59:14.151Z,100309.88
2022-10-18T22:01:43.662Z,100311.59
2022-10-18T22:04:19.708Z,100307.16
2022-10-18T22:06:48.181Z,100298.56
2022-10-18T22:09:17.772Z,100301.41
2022-10-18T22:11:49.131Z,100299.03
2022-10-18T22:14:17.343Z,100299.97
2022-10-18T22:16:45.564Z,100290.94
2022-10-18T22:19:13.763Z,100290.13
2022-10-18T22:21:41.952Z,100275.19
2022-10-18T22:24:10.886Z,100278.38
2022-10-18T22:26:42.136Z,100271.03
2022-10-18T22:29:13.263Z,100267.38
2022-10-18T22:31:43.857Z,100263.09
2022-10-18T22:34:13.951Z,100266.44
2022-10-18T22:36:42.344Z,100261.03
2022-10-18T22:39:11.149Z,100258.97
2022-10-18T22:41:40.679Z,100265.94
2022-10-18T22:44:09.326Z,100258.47
2022-10-18T22:46:37.594Z,100250.22
2022-10-18T22:49:05.819Z,100248.00
2022-10-18T22:54:07.306Z,100249.59
2022-10-18T22:56:35.458Z,100245.91
2022-10-18T22:59:05.010Z,100241.63
2022-10-18T23:01:33.133Z,100237.66
2022-10-18T23:04:01.774Z,100232.09
2022-10-18T23:06:31.685Z,100228.44
2022-10-18T23:09:01.845Z,100228.63
2022-10-18T23:11:31.129Z,100225.91
2022-10-18T23:13:59.330Z,100217.19
2022-10-18T23:16:29.587Z,100214.63
2022-10-18T23:18:59.929Z,100216.69
2022-10-18T23:21:29.478Z,100217.13
2022-10-18T23:23:59.110Z,100211.44
2022-10-18T23:26:29.061Z,100203.34
2022-10-18T23:28:57.628Z,100205.69
2022-10-18T23:31:29.679Z,100196.66
2022-10-18T23:34:01.765Z,100198.22
2022-10-18T23:36:30.191Z,100190.88
2022-10-18T23:38:58.581Z,100192.16
2022-10-18T23:41:27.499Z,100188.47
2022-10-18T23:43:55.981Z,100183.72
2022-10-18T23:46:24.182Z,100180.34
2022-10-18T23:48:54.170Z,100175.72
2022-10-18T23:51:22.257Z,100173.69
2022-10-18T23:53:50.463Z,100175.09
2022-10-18T23:56:18.619Z,100175.72
2022-10-18T23:58:47.146Z,100170.47
